BRZ6012 EGES-EGPA

Flight info

Callsign BRZ6012
Flight time 0h 23m
Altitude 1000
Route DCT
Aircraft BN2P/L-SFG/C

Departure

Time 2026-04-20 13:47
Airport Sanday Airport (EGES)

Arrival

Time 2026-04-20 14:10
Airport Kirkwall Airport (EGPA)
Time Latitude Longitude Altitude Speed Heading
2026-04-20 13:45 59.25173 -2.57375 50 ft 0 kts 206°
2026-04-20 13:46 59.25045 -2.57479 45 ft 58 kts 202°
2026-04-20 13:46 59.24531 -2.57890 189 ft 92 kts 203°
2026-04-20 13:47 59.23934 -2.58441 528 ft 95 kts 196°
2026-04-20 13:47 59.23345 -2.58924 790 ft 88 kts 184°
2026-04-20 13:47 59.22765 -2.59210 1002 ft 86 kts 181°
2026-04-20 13:47 59.22124 -2.59476 1064 ft 100 kts 182°
2026-04-20 13:48 59.21404 -2.59765 1077 ft 107 kts 183°
2026-04-20 13:48 59.20680 -2.60071 1079 ft 105 kts 184°
2026-04-20 13:48 59.19964 -2.60388 1079 ft 106 kts 183°
2026-04-20 13:48 59.19250 -2.60754 1079 ft 108 kts 185°
2026-04-20 13:49 59.18519 -2.61145 1076 ft 111 kts 189°
2026-04-20 13:49 59.17828 -2.61987 1084 ft 119 kts 207°
2026-04-20 13:49 59.17149 -2.62904 1076 ft 121 kts 206°
2026-04-20 13:49 59.16450 -2.63811 1077 ft 117 kts 204°
2026-04-20 13:50 59.25223 -2.57492 1068 ft 0 kts 307°
2026-04-20 13:56 59.25225 -2.57486 56 ft 4 kts 124°
2026-04-20 13:56 59.25210 -2.57447 54 ft 0 kts 116°
2026-04-20 13:57 59.25202 -2.57396 53 ft 4 kts 116°
2026-04-20 13:57 59.25173 -2.57384 52 ft 0 kts 194°
2026-04-20 13:57 59.24888 -2.57565 86 ft 73 kts 202°
2026-04-20 13:58 59.24400 -2.57999 431 ft 80 kts 201°
2026-04-20 13:58 59.23929 -2.58577 771 ft 77 kts 202°
2026-04-20 13:58 59.23458 -2.58992 983 ft 75 kts 189°
2026-04-20 13:58 59.22908 -2.59414 1052 ft 95 kts 189°
2026-04-20 13:59 59.22251 -2.59862 1104 ft 106 kts 189°
2026-04-20 13:59 59.21515 -2.60324 1106 ft 115 kts 189°
2026-04-20 13:59 59.20770 -2.60984 1103 ft 122 kts 205°
2026-04-20 13:59 59.20066 -2.61898 1103 ft 121 kts 202°
2026-04-20 14:00 59.19368 -2.62739 1099 ft 115 kts 200°
2026-04-20 14:00 59.18684 -2.63537 1096 ft 114 kts 202°
2026-04-20 14:00 59.18005 -2.64333 1091 ft 114 kts 202°
2026-04-20 14:00 59.17340 -2.65117 1112 ft 111 kts 201°
2026-04-20 14:01 59.16650 -2.65916 1083 ft 116 kts 200°
2026-04-20 14:01 59.15950 -2.66731 1092 ft 118 kts 202°
2026-04-20 14:01 59.15240 -2.67559 1088 ft 118 kts 202°
2026-04-20 14:01 59.14541 -2.68376 1083 ft 116 kts 201°
2026-04-20 14:02 59.13853 -2.69181 1089 ft 115 kts 200°
2026-04-20 14:02 59.13163 -2.69980 1087 ft 116 kts 200°
2026-04-20 14:02 59.12482 -2.70772 1090 ft 115 kts 202°
2026-04-20 14:02 59.11793 -2.71575 1085 ft 113 kts 201°
2026-04-20 14:03 59.11120 -2.72357 1079 ft 112 kts 200°
2026-04-20 14:03 59.10451 -2.73132 1082 ft 112 kts 201°
2026-04-20 14:03 59.09786 -2.73906 1086 ft 112 kts 200°
2026-04-20 14:03 59.09109 -2.74689 1087 ft 113 kts 200°
2026-04-20 14:04 59.08436 -2.75472 1089 ft 113 kts 201°
2026-04-20 14:04 59.07753 -2.76262 1085 ft 114 kts 201°
2026-04-20 14:04 59.07063 -2.77061 1089 ft 116 kts 201°
2026-04-20 14:04 59.06376 -2.77858 1082 ft 114 kts 202°
2026-04-20 14:05 59.05703 -2.78637 1083 ft 114 kts 202°
2026-04-20 14:05 59.05023 -2.79424 1086 ft 114 kts 203°
2026-04-20 14:05 59.04336 -2.80219 1092 ft 114 kts 203°
2026-04-20 14:05 59.03884 -2.80744 1088 ft 113 kts 203°
2026-04-20 14:06 59.03185 -2.81548 1084 ft 121 kts 201°
2026-04-20 14:06 59.02434 -2.82409 1092 ft 129 kts 202°
2026-04-20 14:06 59.01650 -2.83321 1087 ft 134 kts 204°
2026-04-20 14:06 59.00849 -2.84250 1094 ft 134 kts 204°
2026-04-20 14:07 59.00042 -2.85179 1093 ft 135 kts 204°
2026-04-20 14:07 58.99231 -2.86115 1105 ft 131 kts 204°
2026-04-20 14:07 58.98504 -2.86997 1090 ft 119 kts 205°
2026-04-20 14:07 58.97982 -2.88000 1169 ft 108 kts 226°
2026-04-20 14:08 58.97753 -2.89335 1144 ft 106 kts 256°
2026-04-20 14:08 58.97653 -2.90698 1172 ft 101 kts 257°
2026-04-20 14:08 58.97557 -2.92067 1150 ft 103 kts 256°
2026-04-20 14:08 58.97367 -2.93395 1104 ft 97 kts 229°
2026-04-20 14:09 58.96900 -2.94050 976 ft 76 kts 185°
2026-04-20 14:09 58.96422 -2.94051 816 ft 63 kts 143°
2026-04-20 14:09 58.96097 -2.93509 642 ft 63 kts 130°
2026-04-20 14:09 58.95859 -2.92800 428 ft 64 kts 114°
2026-04-20 14:10 58.95780 -2.92001 246 ft 56 kts 97°
2026-04-20 14:10 58.95783 -2.91306 120 ft 51 kts 91°
2026-04-20 14:10 58.95794 -2.90631 49 ft 43 kts 89°
2026-04-20 14:10 58.95800 -2.90201 46 ft 15 kts 89°
2026-04-20 14:11 58.95792 -2.90101 46 ft 1 kts 44°
2026-04-20 14:11 58.95798 -2.90165 46 ft 11 kts 263°
2026-04-20 14:11 58.95794 -2.90327 46 ft 13 kts 269°
2026-04-20 14:11 58.95790 -2.90463 45 ft 1 kts 237°
2026-04-20 14:12 58.95745 -2.90428 46 ft 13 kts 141°
2026-04-20 14:12 58.95668 -2.90306 50 ft 15 kts 140°
2026-04-20 14:12 58.95585 -2.90173 51 ft 17 kts 141°
2026-04-20 14:12 58.95534 -2.90099 52 ft 5 kts 181°
2026-04-20 14:13 58.95476 -2.90173 52 ft 11 kts 217°
2026-04-20 14:13 58.95447 -2.90198 52 ft 0 kts 122°